Terminal Aerodrome Forecast
Issued by NWS Wichita, KS

Home | Current Version | Previous Version | Text Only | Print | Product List | Glossary Off
Versions: 1 2 3 4 5 6 7 8 9 10 11 12 13 14 15 16 17 18

000
FTUS43 KICT 200935 AAB
TAFICT
TAF AMD
KICT 200935Z 2010/2106 16014KT 5SM BR SCT003 BKN005
     FM201300 17011KT 5SM BR SCT005 BKN100
     FM201500 19013G19KT P6SM SCT015
     FM210000 34010KT P6SM SKC=

USA.gov is the U.S. government's official web portal to all federal, state and local government web resources and services.